sensor_id;sensor_type;location;lat;lon;timestamp;temperature;humidity
1650;DHT22;822;53.670;8.676;2023-03-25T00:00:33;9.50;93.40
1650;DHT22;822;53.670;8.676;2023-03-25T00:03:04;9.50;93.40
1650;DHT22;822;53.670;8.676;2023-03-25T00:05:31;9.50;93.40
1650;DHT22;822;53.670;8.676;2023-03-25T00:08:02;9.50;93.40
1650;DHT22;822;53.670;8.676;2023-03-25T00:10:30;9.50;93.40
1650;DHT22;822;53.670;8.676;2023-03-25T00:12:57;9.50;93.40
1650;DHT22;822;53.670;8.676;2023-03-25T00:15:29;9.60;93.40
1650;DHT22;822;53.670;8.676;2023-03-25T00:17:58;9.60;93.40
1650;DHT22;822;53.670;8.676;2023-03-25T00:20:27;9.60;93.30
1650;DHT22;822;53.670;8.676;2023-03-25T00:22:54;9.60;93.30
1650;DHT22;822;53.670;8.676;2023-03-25T00:25:23;9.60;93.20
1650;DHT22;822;53.670;8.676;2023-03-25T00:27:50;9.60;93.00
1650;DHT22;822;53.670;8.676;2023-03-25T00:30:18;9.70;93.00
1650;DHT22;822;53.670;8.676;2023-03-25T00:32:45;9.70;92.90
1650;DHT22;822;53.670;8.676;2023-03-25T00:35:14;9.70;92.80
1650;DHT22;822;53.670;8.676;2023-03-25T00:37:44;9.70;92.70
1650;DHT22;822;53.670;8.676;2023-03-25T00:40:13;9.70;92.60
1650;DHT22;822;53.670;8.676;2023-03-25T00:42:41;9.80;92.60
1650;DHT22;822;53.670;8.676;2023-03-25T00:45:10;9.70;92.60
1650;DHT22;822;53.670;8.676;2023-03-25T00:47:37;9.70;92.60
1650;DHT22;822;53.670;8.676;2023-03-25T00:50:05;9.70;92.60
1650;DHT22;822;53.670;8.676;2023-03-25T00:52:33;9.70;92.60
1650;DHT22;822;53.670;8.676;2023-03-25T00:55:00;9.70;92.50
1650;DHT22;822;53.670;8.676;2023-03-25T00:57:27;9.70;92.60
1650;DHT22;822;53.670;8.676;2023-03-25T00:59:56;9.80;92.50
1650;DHT22;822;53.670;8.676;2023-03-25T01:02:24;9.70;92.40
1650;DHT22;822;53.670;8.676;2023-03-25T01:04:51;9.80;92.40
1650;DHT22;822;53.670;8.676;2023-03-25T01:07:18;9.80;92.30
1650;DHT22;822;53.670;8.676;2023-03-25T01:09:46;9.80;92.10
1650;DHT22;822;53.670;8.676;2023-03-25T01:12:13;9.80;92.00
1650;DHT22;822;53.670;8.676;2023-03-25T01:14:41;9.80;91.90
1650;DHT22;822;53.670;8.676;2023-03-25T01:17:10;9.80;91.80
1650;DHT22;822;53.670;8.676;2023-03-25T01:19:37;9.80;91.90
1650;DHT22;822;53.670;8.676;2023-03-25T01:22:05;9.80;91.90
1650;DHT22;822;53.670;8.676;2023-03-25T01:24:32;9.80;91.90
1650;DHT22;822;53.670;8.676;2023-03-25T01:26:59;9.80;91.90
1650;DHT22;822;53.670;8.676;2023-03-25T01:29:27;9.80;91.80
1650;DHT22;822;53.670;8.676;2023-03-25T01:31:54;9.80;91.70
1650;DHT22;822;53.670;8.676;2023-03-25T01:34:23;9.90;91.90
1650;DHT22;822;53.670;8.676;2023-03-25T01:36:50;9.80;92.10
1650;DHT22;822;53.670;8.676;2023-03-25T01:39:20;9.80;92.30
1650;DHT22;822;53.670;8.676;2023-03-25T01:41:48;9.80;92.50
1650;DHT22;822;53.670;8.676;2023-03-25T01:47:22;9.70;92.70
1650;DHT22;822;53.670;8.676;2023-03-25T01:49:55;9.70;92.80
1650;DHT22;822;53.670;8.676;2023-03-25T01:52:24;9.60;92.80
1650;DHT22;822;53.670;8.676;2023-03-25T01:54:58;9.60;92.90
1650;DHT22;822;53.670;8.676;2023-03-25T01:57:26;9.50;92.90
1650;DHT22;822;53.670;8.676;2023-03-25T01:59:55;9.50;93.00
1650;DHT22;822;53.670;8.676;2023-03-25T02:02:24;9.50;93.00
1650;DHT22;822;53.670;8.676;2023-03-25T02:05:05;9.60;92.70
1650;DHT22;822;53.670;8.676;2023-03-25T02:07:37;9.60;92.60
1650;DHT22;822;53.670;8.676;2023-03-25T02:10:09;9.60;92.50
1650;DHT22;822;53.670;8.676;2023-03-25T02:12:36;9.60;92.40
1650;DHT22;822;53.670;8.676;2023-03-25T02:15:07;9.60;92.30
1650;DHT22;822;53.670;8.676;2023-03-25T02:17:42;9.60;92.40
1650;DHT22;822;53.670;8.676;2023-03-25T02:20:48;9.60;92.40
1650;DHT22;822;53.670;8.676;2023-03-25T02:26:44;9.60;92.40
1650;DHT22;822;53.670;8.676;2023-03-25T02:29:29;9.60;92.40
1650;DHT22;822;53.670;8.676;2023-03-25T02:32:13;9.50;92.30
1650;DHT22;822;53.670;8.676;2023-03-25T02:34:58;9.50;92.30
1650;DHT22;822;53.670;8.676;2023-03-25T02:37:56;9.50;92.30
1650;DHT22;822;53.670;8.676;2023-03-25T02:40:36;9.50;92.30
1650;DHT22;822;53.670;8.676;2023-03-25T02:43:07;9.50;92.20
1650;DHT22;822;53.670;8.676;2023-03-25T02:45:43;9.50;92.20
1650;DHT22;822;53.670;8.676;2023-03-25T02:48:17;9.50;92.30
1650;DHT22;822;53.670;8.676;2023-03-25T02:50:49;9.50;92.30
1650;DHT22;822;53.670;8.676;2023-03-25T02:53:25;9.40;92.40
1650;DHT22;822;53.670;8.676;2023-03-25T02:55:55;9.40;92.40
1650;DHT22;822;53.670;8.676;2023-03-25T02:58:24;9.40;92.40
1650;DHT22;822;53.670;8.676;2023-03-25T03:00:57;9.40;92.40
1650;DHT22;822;53.670;8.676;2023-03-25T03:03:25;9.40;92.90
1650;DHT22;822;53.670;8.676;2023-03-25T03:05:56;9.40;92.90
1650;DHT22;822;53.670;8.676;2023-03-25T03:08:40;9.40;93.10
1650;DHT22;822;53.670;8.676;2023-03-25T03:11:13;9.40;93.00
1650;DHT22;822;53.670;8.676;2023-03-25T03:13:56;9.40;93.10
1650;DHT22;822;53.670;8.676;2023-03-25T03:16:32;9.40;93.20
1650;DHT22;822;53.670;8.676;2023-03-25T03:19:11;9.30;93.50
1650;DHT22;822;53.670;8.676;2023-03-25T03:21:45;9.30;93.50
1650;DHT22;822;53.670;8.676;2023-03-25T03:24:21;9.30;93.60
1650;DHT22;822;53.670;8.676;2023-03-25T03:26:54;9.30;93.60
1650;DHT22;822;53.670;8.676;2023-03-25T03:29:26;9.30;93.40
1650;DHT22;822;53.670;8.676;2023-03-25T03:31:59;9.20;93.40
1650;DHT22;822;53.670;8.676;2023-03-25T03:34:30;9.20;93.50
1650;DHT22;822;53.670;8.676;2023-03-25T03:37:02;9.20;93.90
1650;DHT22;822;53.670;8.676;2023-03-25T03:39:34;9.10;93.90
1650;DHT22;822;53.670;8.676;2023-03-25T03:42:08;9.10;94.20
1650;DHT22;822;53.670;8.676;2023-03-25T03:44:38;9.00;94.30
1650;DHT22;822;53.670;8.676;2023-03-25T03:47:10;9.00;94.40
1650;DHT22;822;53.670;8.676;2023-03-25T03:49:46;8.90;94.70
1650;DHT22;822;53.670;8.676;2023-03-25T03:52:17;8.90;95.00
1650;DHT22;822;53.670;8.676;2023-03-25T03:54:51;8.80;95.10
1650;DHT22;822;53.670;8.676;2023-03-25T03:57:24;8.80;95.30
1650;DHT22;822;53.670;8.676;2023-03-25T03:59:57;8.70;95.40
1650;DHT22;822;53.670;8.676;2023-03-25T04:02:29;8.70;95.40
1650;DHT22;822;53.670;8.676;2023-03-25T04:05:00;8.60;95.50
1650;DHT22;822;53.670;8.676;2023-03-25T04:07:36;8.60;95.80
1650;DHT22;822;53.670;8.676;2023-03-25T04:10:11;8.60;95.90
1650;DHT22;822;53.670;8.676;2023-03-25T04:12:43;8.60;95.90
1650;DHT22;822;53.670;8.676;2023-03-25T04:15:12;8.60;96.00
1650;DHT22;822;53.670;8.676;2023-03-25T04:17:41;8.60;96.00
1650;DHT22;822;53.670;8.676;2023-03-25T04:20:11;8.60;96.10
1650;DHT22;822;53.670;8.676;2023-03-25T04:22:45;8.60;96.30
1650;DHT22;822;53.670;8.676;2023-03-25T04:25:14;8.50;96.30
1650;DHT22;822;53.670;8.676;2023-03-25T04:27:41;8.50;96.40
1650;DHT22;822;53.670;8.676;2023-03-25T04:30:14;8.50;96.40
1650;DHT22;822;53.670;8.676;2023-03-25T04:32:42;8.50;96.50
1650;DHT22;822;53.670;8.676;2023-03-25T04:35:11;8.50;96.50
1650;DHT22;822;53.670;8.676;2023-03-25T04:37:38;8.50;96.60
1650;DHT22;822;53.670;8.676;2023-03-25T04:40:07;8.50;96.60
1650;DHT22;822;53.670;8.676;2023-03-25T04:42:36;8.40;96.70
1650;DHT22;822;53.670;8.676;2023-03-25T04:45:04;8.40;96.70
1650;DHT22;822;53.670;8.676;2023-03-25T04:47:32;8.50;96.90
1650;DHT22;822;53.670;8.676;2023-03-25T04:49:59;8.40;96.80
1650;DHT22;822;53.670;8.676;2023-03-25T04:52:26;8.40;96.90
1650;DHT22;822;53.670;8.676;2023-03-25T04:54:56;8.40;96.80
1650;DHT22;822;53.670;8.676;2023-03-25T04:57:23;8.40;96.80
1650;DHT22;822;53.670;8.676;2023-03-25T04:59:55;8.40;96.90
1650;DHT22;822;53.670;8.676;2023-03-25T05:02:22;8.40;96.90
1650;DHT22;822;53.670;8.676;2023-03-25T05:04:52;8.40;97.00
1650;DHT22;822;53.670;8.676;2023-03-25T05:07:27;8.30;97.00
1650;DHT22;822;53.670;8.676;2023-03-25T05:09:54;8.30;97.00
1650;DHT22;822;53.670;8.676;2023-03-25T05:12:22;8.30;97.00
1650;DHT22;822;53.670;8.676;2023-03-25T05:14:49;8.30;97.20
1650;DHT22;822;53.670;8.676;2023-03-25T05:17:17;8.40;97.20
1650;DHT22;822;53.670;8.676;2023-03-25T05:19:47;8.40;97.20
1650;DHT22;822;53.670;8.676;2023-03-25T05:22:16;8.40;97.20
1650;DHT22;822;53.670;8.676;2023-03-25T05:24:43;8.40;97.20
1650;DHT22;822;53.670;8.676;2023-03-25T05:27:10;8.40;97.20
1650;DHT22;822;53.670;8.676;2023-03-25T05:29:37;8.40;97.20
1650;DHT22;822;53.670;8.676;2023-03-25T05:32:05;8.40;97.10
1650;DHT22;822;53.670;8.676;2023-03-25T05:34:33;8.50;97.10
1650;DHT22;822;53.670;8.676;2023-03-25T05:37:01;8.50;97.00
1650;DHT22;822;53.670;8.676;2023-03-25T05:39:28;8.50;96.90
1650;DHT22;822;53.670;8.676;2023-03-25T05:41:55;8.50;96.90
1650;DHT22;822;53.670;8.676;2023-03-25T05:44:27;8.40;96.80
1650;DHT22;822;53.670;8.676;2023-03-25T05:46:54;8.50;96.70
1650;DHT22;822;53.670;8.676;2023-03-25T05:49:21;8.50;96.70
1650;DHT22;822;53.670;8.676;2023-03-25T05:51:50;8.50;96.70
1650;DHT22;822;53.670;8.676;2023-03-25T05:54:20;8.40;96.60
1650;DHT22;822;53.670;8.676;2023-03-25T05:56:49;8.40;96.60
1650;DHT22;822;53.670;8.676;2023-03-25T05:59:16;8.40;96.70
1650;DHT22;822;53.670;8.676;2023-03-25T06:01:45;8.40;96.70
1650;DHT22;822;53.670;8.676;2023-03-25T06:04:14;8.40;96.70
1650;DHT22;822;53.670;8.676;2023-03-25T06:06:41;8.50;96.70
1650;DHT22;822;53.670;8.676;2023-03-25T06:09:10;8.50;96.70
1650;DHT22;822;53.670;8.676;2023-03-25T06:11:37;8.50;96.70
1650;DHT22;822;53.670;8.676;2023-03-25T06:14:11;8.50;96.70
1650;DHT22;822;53.670;8.676;2023-03-25T06:16:38;8.50;96.60
1650;DHT22;822;53.670;8.676;2023-03-25T06:19:05;8.60;96.50
1650;DHT22;822;53.670;8.676;2023-03-25T06:21:34;8.60;96.50
1650;DHT22;822;53.670;8.676;2023-03-25T06:24:01;8.60;96.50
1650;DHT22;822;53.670;8.676;2023-03-25T06:26:33;8.60;96.40
1650;DHT22;822;53.670;8.676;2023-03-25T06:29:00;8.60;96.30
1650;DHT22;822;53.670;8.676;2023-03-25T06:31:28;8.60;96.40
1650;DHT22;822;53.670;8.676;2023-03-25T06:33:58;8.60;96.50
1650;DHT22;822;53.670;8.676;2023-03-25T06:36:26;8.50;96.50
1650;DHT22;822;53.670;8.676;2023-03-25T06:38:53;8.60;96.60
1650;DHT22;822;53.670;8.676;2023-03-25T06:41:21;8.60;96.50
1650;DHT22;822;53.670;8.676;2023-03-25T06:43:51;8.50;96.50
1650;DHT22;822;53.670;8.676;2023-03-25T06:46:18;8.60;96.60
1650;DHT22;822;53.670;8.676;2023-03-25T06:48:45;8.70;96.70
1650;DHT22;822;53.670;8.676;2023-03-25T06:51:12;8.70;96.60
1650;DHT22;822;53.670;8.676;2023-03-25T06:53:40;8.70;96.40
1650;DHT22;822;53.670;8.676;2023-03-25T06:56:07;8.70;96.30
1650;DHT22;822;53.670;8.676;2023-03-25T06:58:37;8.70;96.20
1650;DHT22;822;53.670;8.676;2023-03-25T07:01:07;8.80;96.30
1650;DHT22;822;53.670;8.676;2023-03-25T07:03:35;8.80;96.20
1650;DHT22;822;53.670;8.676;2023-03-25T07:06:04;8.80;96.20
1650;DHT22;822;53.670;8.676;2023-03-25T07:08:31;8.80;96.10
1650;DHT22;822;53.670;8.676;2023-03-25T07:11:03;8.80;96.20
1650;DHT22;822;53.670;8.676;2023-03-25T07:13:30;8.90;95.70
1650;DHT22;822;53.670;8.676;2023-03-25T07:15:58;9.00;95.70
1650;DHT22;822;53.670;8.676;2023-03-25T07:18:27;9.00;95.70
1650;DHT22;822;53.670;8.676;2023-03-25T07:20:54;9.00;95.60
1650;DHT22;822;53.670;8.676;2023-03-25T07:23:21;9.00;95.50
1650;DHT22;822;53.670;8.676;2023-03-25T07:25:48;9.00;95.40
1650;DHT22;822;53.670;8.676;2023-03-25T07:28:15;9.00;95.50
1650;DHT22;822;53.670;8.676;2023-03-25T07:30:43;9.00;95.50
1650;DHT22;822;53.670;8.676;2023-03-25T07:33:10;9.00;95.40
1650;DHT22;822;53.670;8.676;2023-03-25T07:35:38;9.00;95.50
1650;DHT22;822;53.670;8.676;2023-03-25T07:38:05;9.00;95.40
1650;DHT22;822;53.670;8.676;2023-03-25T07:40:34;9.00;95.60
1650;DHT22;822;53.670;8.676;2023-03-25T07:43:02;9.10;95.50
1650;DHT22;822;53.670;8.676;2023-03-25T07:45:31;9.10;95.50
1650;DHT22;822;53.670;8.676;2023-03-25T07:47:59;9.10;95.60
1650;DHT22;822;53.670;8.676;2023-03-25T07:50:26;9.10;95.90
1650;DHT22;822;53.670;8.676;2023-03-25T07:52:55;9.20;95.50
1650;DHT22;822;53.670;8.676;2023-03-25T07:55:22;9.30;95.30
1650;DHT22;822;53.670;8.676;2023-03-25T07:57:49;9.30;95.50
1650;DHT22;822;53.670;8.676;2023-03-25T08:00:16;9.30;95.20
1650;DHT22;822;53.670;8.676;2023-03-25T08:02:43;9.40;95.10
1650;DHT22;822;53.670;8.676;2023-03-25T08:05:10;9.40;95.20
1650;DHT22;822;53.670;8.676;2023-03-25T08:07:46;9.40;95.00
1650;DHT22;822;53.670;8.676;2023-03-25T08:10:14;9.50;94.90
1650;DHT22;822;53.670;8.676;2023-03-25T08:12:42;9.50;95.00
1650;DHT22;822;53.670;8.676;2023-03-25T08:15:10;9.50;94.70
1650;DHT22;822;53.670;8.676;2023-03-25T08:17:37;9.60;94.60
1650;DHT22;822;53.670;8.676;2023-03-25T08:20:08;9.60;94.20
1650;DHT22;822;53.670;8.676;2023-03-25T08:22:36;9.60;94.20
1650;DHT22;822;53.670;8.676;2023-03-25T08:25:04;9.50;94.00
1650;DHT22;822;53.670;8.676;2023-03-25T08:27:32;9.50;93.90
1650;DHT22;822;53.670;8.676;2023-03-25T08:30:00;9.50;93.60
1650;DHT22;822;53.670;8.676;2023-03-25T08:32:29;9.60;93.70
1650;DHT22;822;53.670;8.676;2023-03-25T08:34:56;9.50;93.50
1650;DHT22;822;53.670;8.676;2023-03-25T08:37:23;9.50;93.30
1650;DHT22;822;53.670;8.676;2023-03-25T08:39:51;9.50;93.40
1650;DHT22;822;53.670;8.676;2023-03-25T08:42:20;9.50;93.40
1650;DHT22;822;53.670;8.676;2023-03-25T08:44:49;9.40;93.50
1650;DHT22;822;53.670;8.676;2023-03-25T08:47:16;9.40;93.20
1650;DHT22;822;53.670;8.676;2023-03-25T08:49:43;9.30;93.30
1650;DHT22;822;53.670;8.676;2023-03-25T08:52:10;9.30;93.20
1650;DHT22;822;53.670;8.676;2023-03-25T08:54:37;9.20;93.00
1650;DHT22;822;53.670;8.676;2023-03-25T08:57:04;9.20;93.30
1650;DHT22;822;53.670;8.676;2023-03-25T08:59:31;9.20;93.90
1650;DHT22;822;53.670;8.676;2023-03-25T09:02:00;9.10;94.00
1650;DHT22;822;53.670;8.676;2023-03-25T09:04:27;9.10;94.00
1650;DHT22;822;53.670;8.676;2023-03-25T09:06:55;9.00;94.10
1650;DHT22;822;53.670;8.676;2023-03-25T09:09:22;9.00;94.40
1650;DHT22;822;53.670;8.676;2023-03-25T09:11:49;9.00;94.80
1650;DHT22;822;53.670;8.676;2023-03-25T09:14:16;9.00;94.80
1650;DHT22;822;53.670;8.676;2023-03-25T09:16:43;9.00;95.10
1650;DHT22;822;53.670;8.676;2023-03-25T09:19:12;9.00;95.20
1650;DHT22;822;53.670;8.676;2023-03-25T09:21:39;9.10;95.50
1650;DHT22;822;53.670;8.676;2023-03-25T09:24:07;9.20;95.70
1650;DHT22;822;53.670;8.676;2023-03-25T09:26:35;9.30;95.70
1650;DHT22;822;53.670;8.676;2023-03-25T09:29:05;9.30;95.60
1650;DHT22;822;53.670;8.676;2023-03-25T09:31:32;9.50;95.80
1650;DHT22;822;53.670;8.676;2023-03-25T09:34:00;9.60;96.00
1650;DHT22;822;53.670;8.676;2023-03-25T09:36:28;9.80;96.10
1650;DHT22;822;53.670;8.676;2023-03-25T09:38:56;9.90;95.90
1650;DHT22;822;53.670;8.676;2023-03-25T09:41:45;10.10;95.90
1650;DHT22;822;53.670;8.676;2023-03-25T09:44:19;10.20;94.90
1650;DHT22;822;53.670;8.676;2023-03-25T09:46:48;10.30;94.60
1650;DHT22;822;53.670;8.676;2023-03-25T09:49:17;10.40;94.60
1650;DHT22;822;53.670;8.676;2023-03-25T09:51:48;10.50;94.30
1650;DHT22;822;53.670;8.676;2023-03-25T09:54:21;10.60;93.80
1650;DHT22;822;53.670;8.676;2023-03-25T09:56:49;10.60;92.50
1650;DHT22;822;53.670;8.676;2023-03-25T09:59:18;10.50;92.60
1650;DHT22;822;53.670;8.676;2023-03-25T10:01:53;10.40;92.10
1650;DHT22;822;53.670;8.676;2023-03-25T10:04:44;10.30;92.20
1650;DHT22;822;53.670;8.676;2023-03-25T10:07:27;10.10;92.30
1650;DHT22;822;53.670;8.676;2023-03-25T10:10:02;9.90;92.00
1650;DHT22;822;53.670;8.676;2023-03-25T10:12:36;9.60;91.30
1650;DHT22;822;53.670;8.676;2023-03-25T10:15:25;9.40;91.40
1650;DHT22;822;53.670;8.676;2023-03-25T10:18:08;9.10;91.90
1650;DHT22;822;53.670;8.676;2023-03-25T10:20:45;8.90;92.50
1650;DHT22;822;53.670;8.676;2023-03-25T10:23:21;8.80;92.90
1650;DHT22;822;53.670;8.676;2023-03-25T10:25:54;8.80;93.60
1650;DHT22;822;53.670;8.676;2023-03-25T10:28:26;8.80;94.00
1650;DHT22;822;53.670;8.676;2023-03-25T10:30:54;8.80;94.00
1650;DHT22;822;53.670;8.676;2023-03-25T10:33:28;8.80;94.00
1650;DHT22;822;53.670;8.676;2023-03-25T10:35:58;8.90;94.10
1650;DHT22;822;53.670;8.676;2023-03-25T10:38:28;8.90;94.10
1650;DHT22;822;53.670;8.676;2023-03-25T10:41:05;8.90;94.20
1650;DHT22;822;53.670;8.676;2023-03-25T10:43:39;8.90;94.40
1650;DHT22;822;53.670;8.676;2023-03-25T10:46:13;8.90;94.60
1650;DHT22;822;53.670;8.676;2023-03-25T10:48:43;8.90;94.60
1650;DHT22;822;53.670;8.676;2023-03-25T10:51:14;8.90;94.80
1650;DHT22;822;53.670;8.676;2023-03-25T10:53:46;8.90;95.00
1650;DHT22;822;53.670;8.676;2023-03-25T10:56:16;8.90;95.00
1650;DHT22;822;53.670;8.676;2023-03-25T10:58:49;8.80;95.20
1650;DHT22;822;53.670;8.676;2023-03-25T11:01:18;8.80;95.30
1650;DHT22;822;53.670;8.676;2023-03-25T11:03:49;8.80;95.50
1650;DHT22;822;53.670;8.676;2023-03-25T11:06:22;8.80;95.60
1650;DHT22;822;53.670;8.676;2023-03-25T11:09:13;8.90;95.80
1650;DHT22;822;53.670;8.676;2023-03-25T11:11:43;8.90;95.90
1650;DHT22;822;53.670;8.676;2023-03-25T11:14:12;8.90;96.00
1650;DHT22;822;53.670;8.676;2023-03-25T11:16:42;8.90;96.20
1650;DHT22;822;53.670;8.676;2023-03-25T11:19:17;8.90;96.30
1650;DHT22;822;53.670;8.676;2023-03-25T11:21:47;9.00;96.50
1650;DHT22;822;53.670;8.676;2023-03-25T11:24:20;9.00;96.70
1650;DHT22;822;53.670;8.676;2023-03-25T11:26:49;9.10;96.80
1650;DHT22;822;53.670;8.676;2023-03-25T11:29:19;9.20;97.00
1650;DHT22;822;53.670;8.676;2023-03-25T11:31:56;9.30;97.20
1650;DHT22;822;53.670;8.676;2023-03-25T11:34:23;9.50;97.10
1650;DHT22;822;53.670;8.676;2023-03-25T11:36:58;9.60;96.90
1650;DHT22;822;53.670;8.676;2023-03-25T11:39:33;9.60;96.70
1650;DHT22;822;53.670;8.676;2023-03-25T11:42:22;9.60;96.60
1650;DHT22;822;53.670;8.676;2023-03-25T11:44:54;9.60;96.50
1650;DHT22;822;53.670;8.676;2023-03-25T11:47:26;9.60;96.30
1650;DHT22;822;53.670;8.676;2023-03-25T11:49:53;9.60;96.00
1650;DHT22;822;53.670;8.676;2023-03-25T11:52:22;9.50;96.00
1650;DHT22;822;53.670;8.676;2023-03-25T11:54:54;9.50;96.10
1650;DHT22;822;53.670;8.676;2023-03-25T11:57:24;9.40;96.20
1650;DHT22;822;53.670;8.676;2023-03-25T12:00:00;9.40;96.40
1650;DHT22;822;53.670;8.676;2023-03-25T12:02:36;9.40;96.50
1650;DHT22;822;53.670;8.676;2023-03-25T12:05:12;9.40;96.60
1650;DHT22;822;53.670;8.676;2023-03-25T12:07:43;9.40;96.70
1650;DHT22;822;53.670;8.676;2023-03-25T12:10:17;9.50;96.90
1650;DHT22;822;53.670;8.676;2023-03-25T12:12:54;9.60;97.20
1650;DHT22;822;53.670;8.676;2023-03-25T12:15:30;9.60;97.00
1650;DHT22;822;53.670;8.676;2023-03-25T12:18:10;9.60;96.60
1650;DHT22;822;53.670;8.676;2023-03-25T12:20:53;9.40;96.00
1650;DHT22;822;53.670;8.676;2023-03-25T12:23:31;9.20;95.70
1650;DHT22;822;53.670;8.676;2023-03-25T12:26:07;9.10;95.80
1650;DHT22;822;53.670;8.676;2023-03-25T12:31:40;8.80;95.90
1650;DHT22;822;53.670;8.676;2023-03-25T12:34:17;8.80;96.10
1650;DHT22;822;53.670;8.676;2023-03-25T12:36:55;8.90;96.40
1650;DHT22;822;53.670;8.676;2023-03-25T12:39:47;9.00;96.60
1650;DHT22;822;53.670;8.676;2023-03-25T12:42:33;9.10;96.80
1650;DHT22;822;53.670;8.676;2023-03-25T12:45:22;9.20;96.40
1650;DHT22;822;53.670;8.676;2023-03-25T12:47:55;9.30;96.80
1650;DHT22;822;53.670;8.676;2023-03-25T12:50:36;9.50;96.70
1650;DHT22;822;53.670;8.676;2023-03-25T12:53:26;9.60;96.60
1650;DHT22;822;53.670;8.676;2023-03-25T12:56:04;9.60;96.20
1650;DHT22;822;53.670;8.676;2023-03-25T12:58:46;9.60;95.90
1650;DHT22;822;53.670;8.676;2023-03-25T13:01:22;9.60;95.80
1650;DHT22;822;53.670;8.676;2023-03-25T13:04:09;9.60;96.00
1650;DHT22;822;53.670;8.676;2023-03-25T13:06:41;9.70;95.80
1650;DHT22;822;53.670;8.676;2023-03-25T13:09:14;9.70;95.70
1650;DHT22;822;53.670;8.676;2023-03-25T13:11:46;9.70;95.20
1650;DHT22;822;53.670;8.676;2023-03-25T13:14:20;9.70;95.30
1650;DHT22;822;53.670;8.676;2023-03-25T13:16:51;9.70;95.20
1650;DHT22;822;53.670;8.676;2023-03-25T13:19:25;9.80;95.30
1650;DHT22;822;53.670;8.676;2023-03-25T13:21:55;9.90;95.60
1650;DHT22;822;53.670;8.676;2023-03-25T13:24:29;10.10;95.90
1650;DHT22;822;53.670;8.676;2023-03-25T13:27:01;10.30;95.60
1650;DHT22;822;53.670;8.676;2023-03-25T13:29:36;10.50;95.50
1650;DHT22;822;53.670;8.676;2023-03-25T13:32:09;10.60;95.10
1650;DHT22;822;53.670;8.676;2023-03-25T13:34:44;10.70;94.70
1650;DHT22;822;53.670;8.676;2023-03-25T13:37:17;10.70;94.20
1650;DHT22;822;53.670;8.676;2023-03-25T13:39:58;10.80;94.50
1650;DHT22;822;53.670;8.676;2023-03-25T13:42:41;10.80;93.70
1650;DHT22;822;53.670;8.676;2023-03-25T13:45:17;10.80;93.20
1650;DHT22;822;53.670;8.676;2023-03-25T13:47:49;10.80;93.50
1650;DHT22;822;53.670;8.676;2023-03-25T13:50:23;10.80;93.50
1650;DHT22;822;53.670;8.676;2023-03-25T13:52:55;10.90;93.50
1650;DHT22;822;53.670;8.676;2023-03-25T13:55:28;11.00;93.90
1650;DHT22;822;53.670;8.676;2023-03-25T13:58:38;11.00;93.40
1650;DHT22;822;53.670;8.676;2023-03-25T14:04:39;11.00;92.40
1650;DHT22;822;53.670;8.676;2023-03-25T14:10:40;10.80;92.80
1650;DHT22;822;53.670;8.676;2023-03-25T14:13:14;10.70;93.10
1650;DHT22;822;53.670;8.676;2023-03-25T14:15:50;10.70;93.00
1650;DHT22;822;53.670;8.676;2023-03-25T14:18:20;10.60;92.70
1650;DHT22;822;53.670;8.676;2023-03-25T14:20:48;10.30;91.60
1650;DHT22;822;53.670;8.676;2023-03-25T14:23:17;10.00;91.70
1650;DHT22;822;53.670;8.676;2023-03-25T14:25:48;9.80;91.90
1650;DHT22;822;53.670;8.676;2023-03-25T14:28:20;9.60;92.50
1650;DHT22;822;53.670;8.676;2023-03-25T14:31:15;9.50;92.70
1650;DHT22;822;53.670;8.676;2023-03-25T14:34:12;9.40;93.00
1650;DHT22;822;53.670;8.676;2023-03-25T14:39:59;9.30;93.50
1650;DHT22;822;53.670;8.676;2023-03-25T14:42:42;9.30;93.60
1650;DHT22;822;53.670;8.676;2023-03-25T14:48:30;9.20;94.20
1650;DHT22;822;53.670;8.676;2023-03-25T14:54:22;9.20;94.60
1650;DHT22;822;53.670;8.676;2023-03-25T14:56:57;9.30;94.90
1650;DHT22;822;53.670;8.676;2023-03-25T14:59:29;9.30;95.10
1650;DHT22;822;53.670;8.676;2023-03-25T15:02:02;9.30;95.10
1650;DHT22;822;53.670;8.676;2023-03-25T15:04:31;9.30;95.30
1650;DHT22;822;53.670;8.676;2023-03-25T15:07:02;9.30;95.30
1650;DHT22;822;53.670;8.676;2023-03-25T15:09:29;9.20;95.30
1650;DHT22;822;53.670;8.676;2023-03-25T15:11:59;9.20;95.40
1650;DHT22;822;53.670;8.676;2023-03-25T15:14:30;9.20;95.40
1650;DHT22;822;53.670;8.676;2023-03-25T15:17:01;9.10;95.30
1650;DHT22;822;53.670;8.676;2023-03-25T15:20:11;9.20;95.30
1650;DHT22;822;53.670;8.676;2023-03-25T15:22:41;9.20;95.40
1650;DHT22;822;53.670;8.676;2023-03-25T15:25:18;9.20;95.20
1650;DHT22;822;53.670;8.676;2023-03-25T15:27:58;9.20;95.30
1650;DHT22;822;53.670;8.676;2023-03-25T15:36:35;9.20;95.60
1650;DHT22;822;53.670;8.676;2023-03-25T15:39:27;9.20;95.60
1650;DHT22;822;53.670;8.676;2023-03-25T15:42:16;9.20;95.50
1650;DHT22;822;53.670;8.676;2023-03-25T15:45:11;9.20;95.50
1650;DHT22;822;53.670;8.676;2023-03-25T15:50:36;9.10;95.00
1650;DHT22;822;53.670;8.676;2023-03-25T15:56:28;8.90;94.80
1650;DHT22;822;53.670;8.676;2023-03-25T15:59:00;8.80;95.00
1650;DHT22;822;53.670;8.676;2023-03-25T16:01:32;8.80;95.10
1650;DHT22;822;53.670;8.676;2023-03-25T16:04:02;8.80;95.30
1650;DHT22;822;53.670;8.676;2023-03-25T16:06:35;8.90;95.50
1650;DHT22;822;53.670;8.676;2023-03-25T16:09:05;8.90;95.60
1650;DHT22;822;53.670;8.676;2023-03-25T16:11:41;8.90;95.70
1650;DHT22;822;53.670;8.676;2023-03-25T16:14:11;9.00;95.70
1650;DHT22;822;53.670;8.676;2023-03-25T16:16:42;9.00;95.70
1650;DHT22;822;53.670;8.676;2023-03-25T16:19:14;9.10;95.80
1650;DHT22;822;53.670;8.676;2023-03-25T16:21:42;9.10;95.70
1650;DHT22;822;53.670;8.676;2023-03-25T16:24:11;9.10;95.50
1650;DHT22;822;53.670;8.676;2023-03-25T16:26:45;9.10;95.40
1650;DHT22;822;53.670;8.676;2023-03-25T16:29:16;9.00;95.20
1650;DHT22;822;53.670;8.676;2023-03-25T16:31:51;9.00;95.30
1650;DHT22;822;53.670;8.676;2023-03-25T16:34:19;9.00;95.20
1650;DHT22;822;53.670;8.676;2023-03-25T16:36:48;8.90;95.00
1650;DHT22;822;53.670;8.676;2023-03-25T16:39:17;8.90;95.20
1650;DHT22;822;53.670;8.676;2023-03-25T16:41:47;8.90;95.20
1650;DHT22;822;53.670;8.676;2023-03-25T16:44:17;8.80;94.80
1650;DHT22;822;53.670;8.676;2023-03-25T16:46:46;8.70;94.80
1650;DHT22;822;53.670;8.676;2023-03-25T16:49:19;8.60;94.90
1650;DHT22;822;53.670;8.676;2023-03-25T16:51:49;8.60;95.20
1650;DHT22;822;53.670;8.676;2023-03-25T16:54:24;8.50;95.40
1650;DHT22;822;53.670;8.676;2023-03-25T16:56:54;8.40;95.40
1650;DHT22;822;53.670;8.676;2023-03-25T16:59:24;8.40;95.60
1650;DHT22;822;53.670;8.676;2023-03-25T17:01:54;8.30;95.70
1650;DHT22;822;53.670;8.676;2023-03-25T17:04:24;8.30;95.90
1650;DHT22;822;53.670;8.676;2023-03-25T17:06:55;8.30;96.10
1650;DHT22;822;53.670;8.676;2023-03-25T17:09:24;8.40;96.30
1650;DHT22;822;53.670;8.676;2023-03-25T17:11:56;8.40;96.50
1650;DHT22;822;53.670;8.676;2023-03-25T17:14:27;8.40;96.50
1650;DHT22;822;53.670;8.676;2023-03-25T17:16:55;8.40;96.60
1650;DHT22;822;53.670;8.676;2023-03-25T17:19:25;8.40;96.70
1650;DHT22;822;53.670;8.676;2023-03-25T17:22:12;8.40;96.70
1650;DHT22;822;53.670;8.676;2023-03-25T17:24:48;8.40;96.90
1650;DHT22;822;53.670;8.676;2023-03-25T17:27:26;8.40;96.80
1650;DHT22;822;53.670;8.676;2023-03-25T17:29:56;8.40;96.80
1650;DHT22;822;53.670;8.676;2023-03-25T17:32:23;8.40;96.80
1650;DHT22;822;53.670;8.676;2023-03-25T17:34:55;8.30;96.90
1650;DHT22;822;53.670;8.676;2023-03-25T17:37:24;8.30;96.90
1650;DHT22;822;53.670;8.676;2023-03-25T17:39:52;8.30;97.00
1650;DHT22;822;53.670;8.676;2023-03-25T17:42:22;8.30;97.00